Weather at Soewondo Air Force Base

Public forecast

Using degrees Celsius for public forecast. Weather courtesy of forecast.io.

Current aviation weather report (METAR) for Soewondo Air Force Base

Retrieved UTC (0 seconds ago):

Closest aviation forecast (TAF) to Soewondo Air Force Base

Closest forecast is Kualanamu International Airport, 13.8 nm (25.5 km) ENE. Retrieved 2022/01/21 18:09 UTC (5 hours ago):

TAF WIMM 211700Z 2118/2218 VRB03KT 3000 -TSRA FEW016CB BKN017 BECMG 2119/2121 22003KT 5000 HZ BKN017 BECMG 2203/2205 33010KT 9999 NSW